Columbia — WDD6400 — position and weather

sailwx.info

Track history (hours):
 
Tides and Currents Weather Stations Pressure Air Temp Water Temp Dewpoint Dewpoint Depression Visibility Wind Speed Wind Dir Waves Ship Positions

Columbia

Owner: OSG Ship Management Inc., Tampa, FL. More information available from US FCC via Universal Licensing System and Coast Guard Vessel Documentation Center.

Last reported at 2017-Jan-18 20:19 UTC. Time now 2017-Jan-20 09:53 UTC.
Position N 25°33' W 080°02'.

Length 194 m; draft 5.9 m.

Type: Towing. MMSI: 367172440.

Date/timePositionNaut miles runAvg speedWind from/ knotsBaromVisibWave heightAir tempDewpointWater temp
2017-Jan-18 20:19N 25°33' W 080°02'4 5.8
2017-Jan-18 19:34N 25°37' W 080°02'6 5.7
2017-Jan-18 18:34N 25°43' W 080°02'6 5.7
2017-Jan-18 17:34N 25°48' W 080°03'6 6.1
2017-Jan-18 16:34N 25°54' W 080°04'9 8.6
2017-Jan-18 15:33N 26°03' W 080°04'4 3.7
2017-Jan-18 14:33N 26°06' W 080°07'0 0.0
2017-Jan-18 13:24N 26°06' W 080°07'0 0.0
2017-Jan-18 12:24N 26°06' W 080°07'0 0.0
2017-Jan-18 11:21N 26°06' W 080°07'0 0.0
2017-Jan-18 10:27N 26°06' W 080°07'0 0.0
2017-Jan-18 09:27N 26°06' W 080°07'0 0.0
2017-Jan-18 08:27N 26°06' W 080°07'0 0.0
2017-Jan-18 07:27N 26°06' W 080°07'0 0.0
2017-Jan-18 06:27N 26°06' W 080°07'0 0.0
2017-Jan-18 05:30N 26°06' W 080°07'0 0.0
2017-Jan-18 04:30N 26°06' W 080°07'0 0.0
2017-Jan-18 03:30N 26°06' W 080°07'0 0.0
2017-Jan-18 02:30N 26°06' W 080°07'0 0.0
2017-Jan-18 01:33N 26°06' W 080°07'0 0.0
2017-Jan-18 00:33N 26°06' W 080°07'0 0.0
2017-Jan-17 23:33N 26°06' W 080°07'0 0.0
2017-Jan-17 22:33N 26°06' W 080°07'0 0.0
2017-Jan-17 21:33N 26°06' W 080°07'0 0.0
2017-Jan-17 20:33N 26°06' W 080°07'0 0.0
2017-Jan-17 19:33N 26°06' W 080°07'0 0.0
2017-Jan-17 18:33N 26°06' W 080°07'0 0.0
2017-Jan-17 17:33N 26°06' W 080°07'0 0.0
2017-Jan-17 16:33N 26°06' W 080°07'0 0.0
2017-Jan-17 15:33N 26°06' W 080°07'0 0.0
2017-Jan-17 14:24N 26°06' W 080°07'0 0.0
2017-Jan-17 13:24N 26°06' W 080°07'0 0.0
2017-Jan-17 12:27N 26°06' W 080°07'0 0.0
2017-Jan-17 11:27N 26°06' W 080°07'0 0.0
2017-Jan-17 10:27N 26°06' W 080°07'0 0.0
2017-Jan-17 09:26N 26°06' W 080°07'0 0.0
2017-Jan-17 08:26N 26°06' W 080°07'0 0.0
2017-Jan-17 07:29N 26°06' W 080°07'0 0.0
2017-Jan-17 06:29N 26°06' W 080°07'0 0.0
2017-Jan-17 05:29N 26°06' W 080°07'0 0.0
2017-Jan-17 04:29N 26°06' W 080°07'0 0.0
2017-Jan-17 03:29N 26°06' W 080°07'0 0.0
2017-Jan-17 02:29N 26°06' W 080°07'0 0.0
2017-Jan-17 01:32N 26°06' W 080°07'0 0.0
2017-Jan-17 00:32N 26°06' W 080°07'2 2.2
2017-Jan-16 23:33N 26°05' W 080°05'2 2.0
2017-Jan-16 22:30N 26°06' W 080°07'2 2.5
2017-Jan-16 21:33N 26°06' W 080°05'2 1.9
2017-Jan-16 20:33N 26°08' W 080°04'0 0.1
2017-Jan-16 19:32N 26°08' W 080°04'0 0.0
2017-Jan-16 18:32N 26°08' W 080°04'0 0.0
2017-Jan-16 17:33N 26°08' W 080°04'0 0.0
2017-Jan-16 16:33N 26°08' W 080°04'0 0.0
2017-Jan-16 15:33N 26°08' W 080°04'0 0.0
2017-Jan-16 14:33N 26°08' W 080°04'0 0.0
2017-Jan-16 13:33N 26°08' W 080°04'1 0.8
2017-Jan-16 12:33N 26°08' W 080°03'8 8.2
2017-Jan-16 11:33N 25°60' W 080°01'1313.4
2017-Jan-16 10:33N 25°47' W 079°57'1313.3
2017-Jan-16 09:33N 25°34' W 079°58'8 8.3
2017-Jan-16 08:33N 25°26' W 079°59'  
Track history (hours):
 
Tides and Currents Weather Stations Pressure Air Temp Water Temp Dewpoint Dewpoint Depression Visibility Wind Speed Wind Dir Waves Ship Positions

Columbia

Owner: OSG Ship Management Inc., Tampa, FL. More information available from US FCC via Universal Licensing System and Coast Guard Vessel Documentation Center.

Last reported at 2017-Jan-18 20:19 UTC. Time now 2017-Jan-20 09:53 UTC.
Position N 25°33' W 080°02'.

Length 194 m; draft 5.9 m.

Type: Towing. MMSI: 367172440.

Date/timePositionNaut miles runAvg speedWind from/ knotsBaromVisibWave heightAir tempDewpointWater temp
2017-Jan-18 20:19N 25°33' W 080°02'4 5.8
2017-Jan-18 19:34N 25°37' W 080°02'6 5.7
2017-Jan-18 18:34N 25°43' W 080°02'6 5.7
2017-Jan-18 17:34N 25°48' W 080°03'6 6.1
2017-Jan-18 16:34N 25°54' W 080°04'9 8.6
2017-Jan-18 15:33N 26°03' W 080°04'4 3.7
2017-Jan-18 14:33N 26°06' W 080°07'0 0.0
2017-Jan-18 13:24N 26°06' W 080°07'0 0.0
2017-Jan-18 12:24N 26°06' W 080°07'0 0.0
2017-Jan-18 11:21N 26°06' W 080°07'0 0.0
2017-Jan-18 10:27N 26°06' W 080°07'0 0.0
2017-Jan-18 09:27N 26°06' W 080°07'0 0.0
2017-Jan-18 08:27N 26°06' W 080°07'0 0.0
2017-Jan-18 07:27N 26°06' W 080°07'0 0.0
2017-Jan-18 06:27N 26°06' W 080°07'0 0.0
2017-Jan-18 05:30N 26°06' W 080°07'0 0.0
2017-Jan-18 04:30N 26°06' W 080°07'0 0.0
2017-Jan-18 03:30N 26°06' W 080°07'0 0.0
2017-Jan-18 02:30N 26°06' W 080°07'0 0.0
2017-Jan-18 01:33N 26°06' W 080°07'0 0.0
2017-Jan-18 00:33N 26°06' W 080°07'0 0.0
2017-Jan-17 23:33N 26°06' W 080°07'0 0.0
2017-Jan-17 22:33N 26°06' W 080°07'0 0.0
2017-Jan-17 21:33N 26°06' W 080°07'0 0.0
2017-Jan-17 20:33N 26°06' W 080°07'0 0.0
2017-Jan-17 19:33N 26°06' W 080°07'0 0.0
2017-Jan-17 18:33N 26°06' W 080°07'0 0.0
2017-Jan-17 17:33N 26°06' W 080°07'0 0.0
2017-Jan-17 16:33N 26°06' W 080°07'0 0.0
2017-Jan-17 15:33N 26°06' W 080°07'0 0.0
2017-Jan-17 14:24N 26°06' W 080°07'0 0.0
2017-Jan-17 13:24N 26°06' W 080°07'0 0.0
2017-Jan-17 12:27N 26°06' W 080°07'0 0.0
2017-Jan-17 11:27N 26°06' W 080°07'0 0.0
2017-Jan-17 10:27N 26°06' W 080°07'0 0.0
2017-Jan-17 09:26N 26°06' W 080°07'0 0.0
2017-Jan-17 08:26N 26°06' W 080°07'0 0.0
2017-Jan-17 07:29N 26°06' W 080°07'0 0.0
2017-Jan-17 06:29N 26°06' W 080°07'0 0.0
2017-Jan-17 05:29N 26°06' W 080°07'0 0.0
2017-Jan-17 04:29N 26°06' W 080°07'0 0.0
2017-Jan-17 03:29N 26°06' W 080°07'0 0.0
2017-Jan-17 02:29N 26°06' W 080°07'0 0.0
2017-Jan-17 01:32N 26°06' W 080°07'0 0.0
2017-Jan-17 00:32N 26°06' W 080°07'2 2.2
2017-Jan-16 23:33N 26°05' W 080°05'2 2.0
2017-Jan-16 22:30N 26°06' W 080°07'2 2.5
2017-Jan-16 21:33N 26°06' W 080°05'2 1.9
2017-Jan-16 20:33N 26°08' W 080°04'0 0.1
2017-Jan-16 19:32N 26°08' W 080°04'0 0.0
2017-Jan-16 18:32N 26°08' W 080°04'0 0.0
2017-Jan-16 17:33N 26°08' W 080°04'0 0.0
2017-Jan-16 16:33N 26°08' W 080°04'0 0.0
2017-Jan-16 15:33N 26°08' W 080°04'0 0.0
2017-Jan-16 14:33N 26°08' W 080°04'0 0.0
2017-Jan-16 13:33N 26°08' W 080°04'1 0.8
2017-Jan-16 12:33N 26°08' W 080°03'8 8.2
2017-Jan-16 11:33N 25°60' W 080°01'1313.4
2017-Jan-16 10:33N 25°47' W 079°57'1313.3
2017-Jan-16 09:33N 25°34' W 079°58'8 8.3
2017-Jan-16 08:33N 25°26' W 079°59'  

Dump ship's entire track history